createdAt,value
2023-03-06T00:00:33.251Z,2.30
2023-03-06T00:02:59.982Z,1.97
2023-03-06T00:05:27.302Z,2.33
2023-03-06T00:07:54.338Z,1.77
2023-03-06T00:10:24.540Z,2.00
2023-03-06T00:12:52.914Z,3.10
2023-03-06T00:15:20.922Z,1.80
2023-03-06T00:17:47.956Z,2.07
2023-03-06T00:20:15.279Z,2.00
2023-03-06T00:22:42.080Z,1.70
2023-03-06T00:25:13.668Z,2.10
2023-03-06T00:27:40.572Z,1.80
2023-03-06T00:30:08.414Z,1.93
2023-03-06T00:32:35.193Z,2.40
2023-03-06T00:35:01.997Z,2.20
2023-03-06T00:37:28.726Z,2.33
2023-03-06T00:39:55.481Z,2.07
2023-03-06T00:42:22.227Z,2.50
2023-03-06T00:44:49.195Z,2.00
2023-03-06T00:47:17.386Z,2.10
2023-03-06T00:49:45.310Z,2.13
2023-03-06T00:52:13.346Z,2.40
2023-03-06T00:54:40.986Z,2.00
2023-03-06T00:57:08.433Z,2.10
2023-03-06T00:59:35.718Z,2.60
2023-03-06T01:02:03.228Z,2.37
2023-03-06T01:04:30.484Z,2.50
2023-03-06T01:06:57.360Z,2.83
2023-03-06T01:09:24.516Z,2.87
2023-03-06T01:11:51.188Z,2.87
2023-03-06T01:15:17.895Z,2.50
2023-03-06T01:18:44.336Z,2.50
2023-03-06T01:21:11.395Z,2.50
2023-03-06T01:23:38.616Z,2.70
2023-03-06T01:26:06.393Z,2.53
2023-03-06T01:28:35.287Z,2.40
2023-03-06T01:31:02.152Z,2.20
2023-03-06T01:33:28.788Z,2.50
2023-03-06T01:35:55.878Z,2.37
2023-03-06T01:38:22.554Z,2.40
2023-03-06T01:40:49.227Z,2.53
2023-03-06T01:43:28.191Z,2.50
2023-03-06T01:46:35.065Z,3.10
2023-03-06T01:49:31.243Z,2.50
2023-03-06T01:52:14.670Z,2.50
2023-03-06T01:54:47.639Z,2.67
2023-03-06T01:59:51.799Z,2.40
2023-03-06T02:02:19.069Z,3.00
2023-03-06T02:04:47.199Z,2.70
2023-03-06T02:07:18.628Z,2.20
2023-03-06T02:09:45.391Z,2.57
2023-03-06T02:12:16.540Z,3.10
2023-03-06T02:14:44.408Z,2.67
2023-03-06T02:17:13.400Z,2.47
2023-03-06T02:19:58.196Z,2.50
2023-03-06T02:22:29.430Z,2.30
2023-03-06T02:25:32.979Z,2.50
2023-03-06T02:28:00.050Z,2.58
2023-03-06T02:30:28.675Z,2.90
2023-03-06T02:32:55.846Z,3.33
2023-03-06T02:35:25.946Z,3.43
2023-03-06T02:37:53.809Z,2.40
2023-03-06T02:40:23.299Z,2.43
2023-03-06T02:42:52.703Z,2.57
2023-03-06T02:45:30.254Z,2.40
2023-03-06T02:47:56.995Z,2.60
2023-03-06T02:50:23.659Z,2.53
2023-03-06T02:52:50.668Z,2.80
2023-03-06T02:55:17.585Z,2.87
2023-03-06T02:57:44.416Z,3.07
2023-03-06T03:00:12.406Z,2.60
2023-03-06T03:02:39.194Z,2.60
2023-03-06T03:05:06.651Z,3.03
2023-03-06T03:07:33.564Z,2.47
2023-03-06T03:10:00.352Z,2.90
2023-03-06T03:12:28.787Z,2.40
2023-03-06T03:14:56.952Z,2.73
2023-03-06T03:17:24.878Z,2.50
2023-03-06T03:19:51.668Z,3.00
2023-03-06T03:22:19.054Z,2.33
2023-03-06T03:24:46.474Z,2.57
2023-03-06T03:27:13.697Z,2.73
2023-03-06T03:29:41.649Z,2.97
2023-03-06T03:32:09.201Z,2.83
2023-03-06T03:34:36.181Z,2.30
2023-03-06T03:37:03.015Z,2.07
2023-03-06T03:39:29.821Z,2.10
2023-03-06T03:41:56.508Z,2.30
2023-03-06T03:44:23.349Z,2.37
2023-03-06T03:46:50.180Z,2.30
2023-03-06T03:49:17.396Z,2.07
2023-03-06T03:51:44.296Z,2.33
2023-03-06T03:54:11.137Z,2.50
2023-03-06T03:56:40.363Z,2.47
2023-03-06T03:59:07.140Z,2.30
2023-03-06T04:01:33.987Z,2.60
2023-03-06T04:04:00.833Z,2.53
2023-03-06T04:06:27.874Z,2.73
2023-03-06T04:08:55.083Z,2.10
2023-03-06T04:11:21.728Z,2.03
2023-03-06T04:13:48.594Z,2.37
2023-03-06T04:16:15.378Z,2.30
2023-03-06T04:18:42.137Z,2.37
2023-03-06T04:21:08.950Z,2.03
2023-03-06T04:23:35.904Z,1.97
2023-03-06T04:26:03.080Z,2.80
2023-03-06T04:28:29.804Z,2.20
2023-03-06T04:30:56.673Z,2.50
2023-03-06T04:33:23.521Z,2.77
2023-03-06T04:35:50.794Z,2.20
2023-03-06T04:38:17.675Z,2.30
2023-03-06T04:40:45.023Z,2.17
2023-03-06T04:43:13.740Z,2.30
2023-03-06T04:45:41.398Z,2.10
2023-03-06T04:48:08.337Z,2.93
2023-03-06T04:50:35.521Z,2.30
2023-03-06T04:53:03.581Z,2.20
2023-03-06T04:55:30.947Z,3.00
2023-03-06T04:57:59.044Z,2.23
2023-03-06T05:00:30.717Z,2.80
2023-03-06T05:02:59.222Z,2.00
2023-03-06T05:05:26.224Z,2.20
2023-03-06T05:07:53.994Z,2.43
2023-03-06T05:10:21.417Z,1.80
2023-03-06T05:12:48.374Z,2.23
2023-03-06T05:15:15.897Z,2.03
2023-03-06T05:17:43.158Z,2.37
2023-03-06T05:20:11.670Z,2.10
2023-03-06T05:22:38.843Z,2.33
2023-03-06T05:25:06.573Z,1.80
2023-03-06T05:27:33.905Z,1.80
2023-03-06T05:30:01.074Z,2.17
2023-03-06T05:32:28.039Z,2.23
2023-03-06T05:34:54.891Z,2.13
2023-03-06T05:37:23.246Z,2.07
2023-03-06T05:39:51.407Z,2.10
2023-03-06T05:42:18.548Z,2.27
2023-03-06T05:44:45.700Z,1.90
2023-03-06T05:47:13.073Z,1.90
2023-03-06T05:49:40.479Z,2.03
2023-03-06T05:52:08.292Z,1.73
2023-03-06T05:54:36.579Z,2.10
2023-03-06T05:57:04.984Z,1.80
2023-03-06T05:59:33.318Z,1.70
2023-03-06T06:02:01.353Z,2.47
2023-03-06T06:04:28.606Z,1.90
2023-03-06T06:06:58.313Z,1.50
2023-03-06T06:09:25.675Z,1.60
2023-03-06T06:11:58.674Z,1.17
2023-03-06T06:16:53.833Z,1.60
2023-03-06T06:19:21.628Z,1.33
2023-03-06T06:21:50.645Z,1.40
2023-03-06T06:24:19.650Z,1.10
2023-03-06T06:26:47.353Z,1.10
2023-03-06T06:29:14.096Z,1.20
2023-03-06T06:31:41.183Z,1.10
2023-03-06T06:34:10.096Z,1.30
2023-03-06T06:36:37.219Z,1.43
2023-03-06T06:39:04.999Z,1.80
2023-03-06T06:41:55.215Z,1.20
2023-03-06T06:44:20.086Z,1.50
2023-03-06T06:49:34.617Z,1.60
2023-03-06T06:52:02.512Z,1.90
2023-03-06T06:54:29.228Z,2.00
2023-03-06T06:56:55.941Z,1.80
2023-03-06T06:59:23.969Z,1.70
2023-03-06T07:01:52.214Z,1.97
2023-03-06T07:04:19.851Z,1.90
2023-03-06T07:06:46.705Z,1.97
2023-03-06T07:09:14.070Z,2.03
2023-03-06T07:11:41.263Z,1.90
2023-03-06T07:14:08.466Z,1.60
2023-03-06T07:16:35.189Z,1.77
2023-03-06T07:19:02.050Z,2.30
2023-03-06T07:21:28.990Z,2.00
2023-03-06T07:23:57.593Z,1.60
2023-03-06T07:26:28.551Z,1.93
2023-03-06T07:28:58.827Z,1.90
2023-03-06T07:31:27.551Z,1.70
2023-03-06T07:33:55.212Z,1.80
2023-03-06T07:36:23.768Z,1.87
2023-03-06T07:38:50.414Z,1.57
2023-03-06T07:41:22.210Z,1.57
2023-03-06T07:43:50.197Z,2.10
2023-03-06T07:46:17.376Z,3.00
2023-03-06T07:48:44.855Z,2.17
2023-03-06T07:51:20.436Z,2.23
2023-03-06T07:53:48.120Z,1.97
2023-03-06T07:56:15.008Z,2.77
2023-03-06T07:58:44.362Z,1.70
2023-03-06T08:01:14.753Z,1.50
2023-03-06T08:03:42.012Z,1.40
2023-03-06T08:06:20.474Z,1.50
2023-03-06T08:08:48.963Z,1.37
2023-03-06T08:11:18.396Z,1.30
2023-03-06T08:13:45.438Z,1.30
2023-03-06T08:16:12.184Z,1.10
2023-03-06T08:18:42.815Z,1.50
2023-03-06T08:21:17.218Z,1.27
2023-03-06T08:23:45.023Z,1.33
2023-03-06T08:26:15.154Z,1.70
2023-03-06T08:28:42.704Z,1.20
2023-03-06T08:31:27.717Z,1.10
2023-03-06T08:33:56.993Z,1.20
2023-03-06T08:36:24.102Z,1.60
2023-03-06T08:38:51.057Z,1.33
2023-03-06T08:41:18.366Z,1.30
2023-03-06T08:43:45.660Z,1.30
2023-03-06T08:46:12.733Z,1.27
2023-03-06T08:48:39.868Z,1.20
2023-03-06T08:51:09.095Z,2.83
2023-03-06T08:53:43.160Z,1.50
2023-03-06T08:56:19.320Z,1.50
2023-03-06T08:58:46.887Z,1.40
2023-03-06T09:01:19.554Z,1.30
2023-03-06T09:03:49.030Z,1.85
2023-03-06T09:06:16.177Z,2.80
2023-03-06T09:08:44.512Z,2.53
2023-03-06T09:11:12.961Z,2.60
2023-03-06T09:13:39.929Z,2.77
2023-03-06T09:16:07.652Z,3.03
2023-03-06T09:18:34.536Z,2.57
2023-03-06T09:21:01.372Z,3.13
2023-03-06T09:23:28.156Z,2.20
2023-03-06T09:26:54.749Z,2.60
2023-03-06T09:29:22.087Z,2.77
2023-03-06T09:31:48.870Z,2.20
2023-03-06T09:34:15.724Z,2.57
2023-03-06T09:36:56.764Z,3.43
2023-03-06T09:39:25.506Z,2.80
2023-03-06T09:41:52.807Z,2.80
2023-03-06T09:44:23.089Z,3.23
2023-03-06T09:47:09.106Z,2.93
2023-03-06T09:50:18.728Z,3.90
2023-03-06T09:53:10.220Z,2.33
2023-03-06T09:55:38.935Z,2.40
2023-03-06T09:58:10.327Z,1.40
2023-03-06T10:00:45.821Z,1.50
2023-03-06T10:03:21.793Z,1.83
2023-03-06T10:05:59.921Z,1.50
2023-03-06T10:08:49.409Z,1.97
2023-03-06T10:11:23.897Z,1.70
2023-03-06T10:13:58.121Z,2.17
2023-03-06T10:16:30.703Z,1.93
2023-03-06T10:19:03.422Z,1.60
2023-03-06T10:22:01.270Z,1.85
2023-03-06T10:24:46.155Z,1.50
2023-03-06T10:27:29.473Z,1.70
2023-03-06T10:30:18.701Z,2.40
2023-03-06T10:33:16.900Z,1.60
2023-03-06T10:35:50.247Z,2.27
2023-03-06T10:38:24.458Z,1.90
2023-03-06T10:41:12.964Z,2.37
2023-03-06T10:43:45.154Z,2.07
2023-03-06T10:46:14.859Z,5.25
2023-03-06T10:48:42.727Z,2.00
2023-03-06T10:51:18.478Z,2.00
2023-03-06T10:54:00.627Z,2.13
2023-03-06T10:56:35.814Z,2.40
2023-03-06T10:59:25.330Z,1.97
2023-03-06T11:01:57.940Z,1.87
2023-03-06T11:04:29.336Z,2.60
2023-03-06T11:07:22.955Z,1.97
2023-03-06T11:09:58.739Z,2.40
2023-03-06T11:12:37.693Z,2.23
2023-03-06T11:15:08.063Z,1.83
2023-03-06T11:17:48.930Z,1.90
2023-03-06T11:20:19.565Z,1.83
2023-03-06T11:22:51.079Z,1.60
2023-03-06T11:25:21.104Z,2.40
2023-03-06T11:27:56.432Z,1.77
2023-03-06T11:30:39.278Z,1.70
2023-03-06T11:33:22.253Z,1.70
2023-03-06T11:36:02.757Z,1.60
2023-03-06T11:38:50.034Z,1.47
2023-03-06T11:41:45.722Z,1.60
2023-03-06T11:44:24.961Z,2.13
2023-03-06T11:47:03.331Z,2.20
2023-03-06T11:49:36.266Z,1.50
2023-03-06T11:54:37.625Z,1.00
2023-03-06T11:57:20.442Z,1.43
2023-03-06T11:59:53.185Z,1.00
2023-03-06T12:02:40.902Z,0.80
2023-03-06T12:05:42.062Z,0.60
2023-03-06T12:08:31.577Z,0.80
2023-03-06T12:11:11.220Z,1.20
2023-03-06T12:16:29.247Z,1.00
2023-03-06T12:19:03.823Z,0.77
2023-03-06T12:22:11.590Z,0.83
2023-03-06T12:24:44.155Z,0.70
2023-03-06T12:27:31.039Z,0.70
2023-03-06T12:30:09.586Z,0.83
2023-03-06T12:33:02.325Z,0.90
2023-03-06T12:35:44.190Z,0.68
2023-03-06T12:38:27.010Z,0.47
2023-03-06T12:41:16.807Z,0.90
2023-03-06T12:44:07.184Z,0.90
2023-03-06T12:46:41.700Z,0.80
2023-03-06T12:49:31.408Z,0.90
2023-03-06T12:52:00.554Z,0.87
2023-03-06T12:54:33.715Z,1.00
2023-03-06T12:57:01.069Z,0.70
2023-03-06T12:59:48.801Z,1.10
2023-03-06T13:02:36.009Z,0.60
2023-03-06T13:05:30.046Z,0.80
2023-03-06T13:08:24.832Z,0.93
2023-03-06T13:11:18.872Z,1.30
2023-03-06T13:13:47.791Z,0.50
2023-03-06T13:16:26.136Z,0.90
2023-03-06T13:18:58.905Z,1.00
2023-03-06T13:21:54.716Z,0.73
2023-03-06T13:24:27.466Z,0.90
2023-03-06T13:27:01.271Z,0.70
2023-03-06T13:29:37.295Z,0.57
2023-03-06T13:32:04.110Z,0.63
2023-03-06T13:34:43.617Z,0.60
2023-03-06T13:37:27.997Z,0.63
2023-03-06T13:39:58.565Z,0.70
2023-03-06T13:42:36.240Z,0.70
2023-03-06T13:45:13.353Z,0.87
2023-03-06T13:48:19.448Z,0.57
2023-03-06T13:50:49.924Z,0.60
2023-03-06T13:53:35.374Z,1.10
2023-03-06T13:56:40.488Z,0.60
2023-03-06T13:59:52.367Z,0.60
2023-03-06T14:02:58.107Z,0.68
2023-03-06T14:05:34.799Z,1.10
2023-03-06T14:08:23.871Z,0.80
2023-03-06T14:11:04.935Z,0.90
2023-03-06T14:13:47.847Z,0.70
2023-03-06T14:16:22.324Z,0.90
2023-03-06T14:18:52.190Z,0.60
2023-03-06T14:21:31.099Z,0.60
2023-03-06T14:24:00.655Z,0.83
2023-03-06T14:26:31.511Z,0.90
2023-03-06T14:29:00.743Z,0.60
2023-03-06T14:31:34.552Z,0.80
2023-03-06T14:34:05.292Z,0.80
2023-03-06T14:36:36.681Z,1.97
2023-03-06T14:39:10.833Z,1.80
2023-03-06T14:41:39.078Z,0.90
2023-03-06T14:44:22.147Z,1.33
2023-03-06T14:46:57.060Z,1.20
2023-03-06T14:49:27.376Z,0.90
2023-03-06T14:51:56.507Z,1.13
2023-03-06T14:54:30.090Z,0.97
2023-03-06T14:57:13.304Z,1.40
2023-03-06T15:02:18.922Z,1.20
2023-03-06T15:04:51.005Z,0.90
2023-03-06T15:07:22.130Z,2.08
2023-03-06T15:09:54.096Z,1.30
2023-03-06T15:12:20.919Z,1.27
2023-03-06T15:15:31.464Z,0.80
2023-03-06T15:18:04.790Z,1.20
2023-03-06T15:20:56.208Z,1.50
2023-03-06T15:23:40.439Z,1.20
2023-03-06T15:26:21.846Z,2.10
2023-03-06T15:29:23.451Z,1.23
2023-03-06T15:31:52.024Z,1.37
2023-03-06T15:34:26.270Z,0.70
2023-03-06T15:36:56.048Z,0.77
2023-03-06T15:39:32.176Z,1.20
2023-03-06T15:42:26.382Z,0.90
2023-03-06T15:44:55.372Z,0.97
2023-03-06T15:47:22.714Z,0.90
2023-03-06T15:49:52.513Z,0.90
2023-03-06T15:52:23.184Z,0.70
2023-03-06T15:54:50.317Z,1.20
2023-03-06T15:57:27.304Z,0.73
2023-03-06T15:59:56.128Z,0.80
2023-03-06T16:02:24.276Z,0.77
2023-03-06T16:04:52.671Z,0.93
2023-03-06T16:07:20.707Z,1.17
2023-03-06T16:09:47.498Z,1.00
2023-03-06T16:12:19.883Z,1.40
2023-03-06T16:14:48.126Z,1.15
2023-03-06T16:17:15.350Z,1.23
2023-03-06T16:19:42.305Z,1.73
2023-03-06T16:22:09.432Z,1.10
2023-03-06T16:24:37.278Z,1.33
2023-03-06T16:27:04.465Z,1.60
2023-03-06T16:29:31.320Z,1.40
2023-03-06T16:31:59.068Z,1.93
2023-03-06T16:34:26.431Z,1.53
2023-03-06T16:36:53.279Z,1.20
2023-03-06T16:39:22.750Z,1.20
2023-03-06T16:41:50.503Z,2.80
2023-03-06T16:44:17.666Z,2.10
2023-03-06T16:46:47.114Z,2.70
2023-03-06T16:49:25.524Z,2.40
2023-03-06T16:51:53.465Z,1.60
2023-03-06T16:54:21.907Z,1.93
2023-03-06T16:56:48.938Z,2.30
2023-03-06T16:59:15.775Z,2.10
2023-03-06T17:01:43.252Z,2.47
2023-03-06T17:04:11.181Z,3.57
2023-03-06T17:06:38.736Z,2.50
2023-03-06T17:09:05.602Z,1.60
2023-03-06T17:11:32.511Z,3.17
2023-03-06T17:13:59.671Z,2.30
2023-03-06T17:16:26.308Z,2.43
2023-03-06T17:18:54.852Z,2.53
2023-03-06T17:21:21.623Z,2.40
2023-03-06T17:23:48.392Z,2.40
2023-03-06T17:26:20.721Z,2.27
2023-03-06T17:28:47.755Z,2.75
2023-03-06T17:31:19.684Z,3.37
2023-03-06T17:33:47.861Z,3.80
2023-03-06T17:36:15.452Z,4.97
2023-03-06T17:38:42.784Z,3.60
2023-03-06T17:41:11.196Z,9.90
2023-03-06T17:43:39.615Z,9.47
2023-03-06T17:46:11.422Z,6.23
2023-03-06T17:48:39.269Z,4.13
2023-03-06T17:51:06.699Z,8.97
2023-03-06T17:53:33.880Z,10.67
2023-03-06T17:56:06.868Z,11.70
2023-03-06T18:01:13.973Z,6.13
2023-03-06T18:03:44.703Z,4.07
2023-03-06T18:06:12.941Z,5.27
2023-03-06T18:08:41.294Z,6.47
2023-03-06T18:11:09.906Z,5.10
2023-03-06T18:13:39.512Z,4.10
2023-03-06T18:16:07.981Z,4.50
2023-03-06T18:18:35.412Z,8.00
2023-03-06T18:21:12.581Z,7.60
2023-03-06T18:23:40.919Z,6.53
2023-03-06T18:26:14.146Z,4.60
2023-03-06T18:28:44.653Z,4.90
2023-03-06T18:31:24.878Z,5.63
2023-03-06T18:34:03.232Z,3.97
2023-03-06T18:36:32.541Z,4.57
2023-03-06T18:39:04.116Z,5.23
2023-03-06T18:41:31.283Z,5.43
2023-03-06T18:44:00.295Z,7.27
2023-03-06T18:46:34.738Z,5.10
2023-03-06T18:49:02.270Z,5.10
2023-03-06T18:51:29.322Z,5.77
2023-03-06T18:54:00.620Z,5.30
2023-03-06T18:56:33.377Z,4.60
2023-03-06T18:59:05.874Z,6.35
2023-03-06T19:01:33.438Z,4.53
2023-03-06T19:04:02.026Z,4.60
2023-03-06T19:06:30.134Z,4.13
2023-03-06T19:09:02.150Z,3.97
2023-03-06T19:11:29.464Z,5.15
2023-03-06T19:13:56.458Z,4.13
2023-03-06T19:16:26.378Z,3.47
2023-03-06T19:18:55.789Z,3.93
2023-03-06T19:21:24.676Z,2.77
2023-03-06T19:23:52.053Z,3.50
2023-03-06T19:26:19.267Z,3.30
2023-03-06T19:28:47.287Z,2.57
2023-03-06T19:31:25.282Z,2.83
2023-03-06T21:08:24.389Z,2.07
2023-03-06T21:10:51.544Z,2.07
2023-03-06T21:13:18.527Z,2.80
2023-03-06T21:15:48.029Z,1.90
2023-03-06T21:18:15.122Z,1.90
2023-03-06T21:20:43.388Z,2.13
2023-03-06T21:23:10.702Z,1.97
2023-03-06T21:25:37.493Z,3.57
2023-03-06T21:28:04.303Z,3.40
2023-03-06T21:30:34.726Z,3.13
2023-03-06T21:33:01.409Z,3.07
2023-03-06T21:35:29.365Z,2.23
2023-03-06T21:37:56.404Z,2.47
2023-03-06T21:40:23.100Z,2.70
2023-03-06T21:42:49.742Z,3.17
2023-03-06T21:45:16.737Z,2.63
2023-03-06T21:47:43.408Z,3.57
2023-03-06T21:50:11.763Z,3.23
2023-03-06T21:52:38.671Z,2.83
2023-03-06T21:55:06.107Z,2.60
2023-03-06T21:57:35.184Z,3.53
2023-03-06T22:00:02.337Z,2.63
2023-03-06T22:02:29.612Z,2.93
2023-03-06T22:04:56.428Z,2.73
2023-03-06T22:07:23.288Z,2.57
2023-03-06T22:09:53.651Z,2.70
2023-03-06T22:12:21.118Z,2.00
2023-03-06T22:14:48.232Z,1.90
2023-03-06T22:17:14.947Z,1.90
2023-03-06T22:19:41.744Z,2.50
2023-03-06T22:22:10.694Z,2.33
2023-03-06T22:24:37.504Z,2.47
2023-03-06T22:27:04.410Z,2.07
2023-03-06T22:29:31.311Z,1.80
2023-03-06T22:31:58.034Z,2.50
2023-03-06T22:34:26.637Z,2.37
2023-03-06T22:36:53.518Z,2.07
2023-03-06T22:39:20.251Z,1.93
2023-03-06T22:41:47.252Z,2.37
2023-03-06T22:44:19.527Z,2.60
2023-03-06T22:46:46.712Z,2.63
2023-03-06T22:49:14.367Z,2.60
2023-03-06T22:51:42.459Z,2.23
2023-03-06T22:54:09.978Z,2.90
2023-03-06T22:56:36.823Z,2.20
2023-03-06T22:59:04.483Z,2.10
2023-03-06T23:01:33.549Z,2.30
2023-03-06T23:04:03.267Z,1.60
2023-03-06T23:06:37.713Z,2.33
2023-03-06T23:09:22.583Z,1.87
2023-03-06T23:11:50.178Z,1.80
2023-03-06T23:14:18.258Z,1.83
2023-03-06T23:16:45.500Z,1.60
2023-03-06T23:19:12.733Z,2.00
2023-03-06T23:21:39.507Z,1.60
2023-03-06T23:24:07.019Z,1.90
2023-03-06T23:26:35.019Z,2.47
2023-03-06T23:29:02.465Z,1.77
2023-03-06T23:31:30.604Z,1.50
2023-03-06T23:34:02.711Z,2.10
2023-03-06T23:36:30.500Z,2.70
2023-03-06T23:38:57.812Z,1.90
2023-03-06T23:41:25.350Z,1.43
2023-03-06T23:43:55.129Z,1.57
2023-03-06T23:46:22.385Z,1.20
2023-03-06T23:48:49.348Z,1.50
2023-03-06T23:51:19.203Z,1.43
2023-03-06T23:53:47.130Z,1.37
2023-03-06T23:56:14.376Z,1.20
2023-03-06T23:58:41.303Z,1.20
